OAIX

Details ICAO OAIX (BPM)
Name BAGRAM
Region Afghanistan
Timezone Asia/Kabul (UTC+4.5)
Plans Departing 28
Arriving 50
Stats Elevation 4,895 ft / 1,492 m (AMSL)
Location 34.946139° 69.264972°
Runways 1
Magnetic Variation 3.299° E
Sunrise 2018-06-24 00:11:23 UTC / 2018-06-24 04:41:23 Local
Sunset 2018-06-24 14:41:38 UTC / 2018-06-24 19:11:38 Local
Advertisement - Login to hide

Runways

ID Width Length Bearing (true) Bearing (mag) Surface Threshold Offset Overrun Length
03 180 ft / 55 m 9,865 ft / 3,007 m 28.90° 25.60° Concrete 0 ft / 0 m 0 ft / 0 m
21 180 ft / 55 m 9,865 ft / 3,007 m 208.91° 205.61° Concrete 0 ft / 0 m 0 ft / 0 m

Map

Weather


0- 5 10 15 20 25 30 35+ Temperature / ° C

Clouds and Precipitation
Forecast for 2018-06-24 06:00 UTC. Updated 3 hours ago

Ground ~20,000 ft ~40,000 ft Winds

METAR

OAIX 240558Z 36013G21KT 9999 FEW310 31/M03 A2990 RMK AO2A SLP018 T03081031 10308 20233 58003 $

TAF

TAF AMD OAIX 240320Z 2403/2505 34012G18KT 9999 SKC QNH2981INS BECMG 2405/2406 35015G25KT 9999 SKC 520003 QNH2977INS TEMPO 2410/2414 36025G35KT 8000 BLDU 530005 BECMG 2419/2420 34009KT 9999 SKC QNH2981INS TX34/2409Z TN18/2501Z

Frequencies

Recorded 134.25 MHz ATIS
Tower 118.50 MHz TWR
Ground 125.90 MHz GND
Approach 133.35 MHz APP
Warning: Do not use this data for real-world aviation or navigation. No guarantee of current accuracy is given.